createdAt,value
2022-10-05T00:00:01.613Z,2.88
2022-10-05T00:05:21.470Z,2.83
2022-10-05T00:10:25.774Z,2.85
2022-10-05T00:15:30.825Z,2.70
2022-10-05T00:20:36.061Z,3.10
2022-10-05T00:25:40.383Z,2.50
2022-10-05T00:30:44.415Z,2.40
2022-10-05T00:35:49.827Z,2.60
2022-10-05T00:41:02.271Z,2.57
2022-10-05T00:46:09.014Z,3.00
2022-10-05T00:51:21.016Z,3.33
2022-10-05T00:56:44.394Z,3.13
2022-10-05T01:01:53.677Z,2.92
2022-10-05T01:07:15.839Z,3.40
2022-10-05T01:12:24.844Z,3.85
2022-10-05T01:17:35.079Z,3.85
2022-10-05T01:22:53.762Z,3.75
2022-10-05T01:28:04.120Z,3.80
2022-10-05T01:33:14.287Z,4.35
2022-10-05T01:38:28.778Z,4.00
2022-10-05T01:43:37.916Z,4.10
2022-10-05T01:48:49.878Z,4.72
2022-10-05T01:54:02.902Z,4.50
2022-10-05T01:59:16.782Z,4.03
2022-10-05T02:04:56.577Z,4.30
2022-10-05T02:09:50.416Z,4.60
2022-10-05T02:14:58.994Z,4.47
2022-10-05T02:20:05.516Z,4.80
2022-10-05T02:25:12.110Z,4.65
2022-10-05T02:30:18.848Z,5.18
2022-10-05T02:35:25.099Z,4.55
2022-10-05T02:40:39.431Z,5.32
2022-10-05T02:45:51.520Z,5.20
2022-10-05T02:51:00.675Z,5.68
2022-10-05T02:56:12.308Z,6.18
2022-10-05T03:01:24.033Z,5.15
2022-10-05T03:06:33.213Z,5.40
2022-10-05T03:11:44.563Z,5.88
2022-10-05T03:16:56.702Z,5.55
2022-10-05T03:22:04.887Z,5.80
2022-10-05T03:27:25.049Z,6.60
2022-10-05T03:32:38.643Z,5.70
2022-10-05T03:37:49.310Z,6.10
2022-10-05T03:43:02.446Z,5.90
2022-10-05T03:48:11.164Z,6.28
2022-10-05T03:53:19.383Z,6.00
2022-10-05T03:58:27.833Z,6.80
2022-10-05T04:03:36.910Z,7.03
2022-10-05T04:08:47.908Z,6.85
2022-10-05T04:14:00.542Z,8.93
2022-10-05T04:19:10.665Z,7.88
2022-10-05T04:24:17.577Z,6.50
2022-10-05T04:29:30.236Z,6.70
2022-10-05T04:34:49.079Z,6.72
2022-10-05T04:40:03.319Z,9.48
2022-10-05T04:45:14.528Z,8.50
2022-10-05T04:50:26.484Z,8.85
2022-10-05T04:55:43.879Z,9.70
2022-10-05T05:00:56.243Z,9.48
2022-10-05T05:06:18.652Z,10.05
2022-10-05T05:11:30.692Z,11.40
2022-10-05T05:16:39.607Z,14.23
2022-10-05T05:21:55.538Z,15.88
2022-10-05T05:27:10.411Z,17.77
2022-10-05T05:32:24.005Z,15.10
2022-10-05T05:37:33.811Z,29.98
2022-10-05T05:42:43.551Z,38.90
2022-10-05T05:47:53.916Z,24.15
2022-10-05T05:53:06.383Z,28.88
2022-10-05T05:58:15.013Z,16.98
2022-10-05T06:03:24.157Z,12.73
2022-10-05T06:08:34.327Z,11.35
2022-10-05T06:13:45.326Z,9.50
2022-10-05T06:18:53.929Z,15.00
2022-10-05T06:24:02.347Z,9.60
2022-10-05T06:29:11.644Z,5.78
2022-10-05T06:34:26.540Z,6.22
2022-10-05T06:39:48.256Z,5.05
2022-10-05T06:44:57.920Z,9.75
2022-10-05T06:50:32.939Z,5.97
2022-10-05T06:55:59.106Z,4.93
2022-10-05T07:01:06.187Z,7.10
2022-10-05T07:06:17.120Z,4.95
2022-10-05T07:11:33.867Z,4.57
2022-10-05T07:16:45.537Z,3.92
2022-10-05T07:22:01.515Z,3.65
2022-10-05T07:27:13.294Z,2.70
2022-10-05T07:32:27.374Z,3.33
2022-10-05T07:37:55.211Z,2.95
2022-10-05T07:43:13.192Z,3.17
2022-10-05T07:48:20.788Z,3.22
2022-10-05T07:53:28.862Z,3.00
2022-10-05T07:58:40.142Z,2.10
2022-10-05T08:03:53.747Z,2.10
2022-10-05T08:09:03.024Z,2.00
2022-10-05T08:14:16.756Z,1.80
2022-10-05T08:19:24.860Z,1.90
2022-10-05T08:24:43.761Z,2.08
2022-10-05T08:29:55.440Z,2.13
2022-10-05T08:35:03.470Z,2.10
2022-10-05T08:40:35.262Z,2.20
2022-10-05T08:45:59.251Z,1.90
2022-10-05T08:51:21.292Z,2.20
2022-10-05T08:56:31.594Z,2.15
2022-10-05T09:01:49.815Z,2.03
2022-10-05T09:07:11.703Z,2.05
2022-10-05T09:12:41.406Z,1.98
2022-10-05T09:18:23.973Z,2.03
2022-10-05T09:23:38.211Z,1.92
2022-10-05T09:28:51.023Z,2.08
2022-10-05T09:34:17.163Z,1.75
2022-10-05T09:39:35.483Z,1.70
2022-10-05T09:45:21.572Z,2.75
2022-10-05T09:50:52.119Z,1.30
2022-10-05T09:56:20.416Z,1.92
2022-10-05T10:01:34.368Z,1.40
2022-10-05T10:07:05.500Z,4.82
2022-10-05T10:12:32.335Z,2.20
2022-10-05T10:17:56.292Z,2.30
2022-10-05T10:23:25.174Z,3.35
2022-10-05T10:28:42.098Z,1.65
2022-10-05T10:34:08.975Z,1.88
2022-10-05T10:39:19.481Z,2.65
2022-10-05T10:44:43.654Z,1.45
2022-10-05T10:50:00.117Z,1.80
2022-10-05T10:55:28.670Z,2.50
2022-10-05T11:00:43.362Z,1.90
2022-10-05T11:06:09.615Z,1.77
2022-10-05T11:11:28.546Z,2.42
2022-10-05T11:17:11.064Z,2.50
2022-10-05T11:22:25.758Z,2.00
2022-10-05T11:28:05.000Z,2.70
2022-10-05T11:33:40.687Z,5.90
2022-10-05T11:38:58.083Z,2.03
2022-10-05T11:44:30.650Z,1.98
2022-10-05T11:49:39.647Z,3.33
2022-10-05T11:55:11.390Z,2.80
2022-10-05T12:00:18.592Z,2.17
2022-10-05T12:05:26.426Z,1.50
2022-10-05T12:10:35.623Z,1.90
2022-10-05T12:15:47.334Z,1.77
2022-10-05T12:20:56.264Z,2.90
2022-10-05T12:26:04.002Z,2.13
2022-10-05T12:31:21.804Z,6.20
2022-10-05T12:36:46.183Z,2.20
2022-10-05T12:42:05.698Z,2.58
2022-10-05T12:47:13.976Z,3.10
2022-10-05T12:52:34.291Z,2.30
2022-10-05T12:57:42.102Z,2.85
2022-10-05T13:02:48.253Z,2.72
2022-10-05T13:08:09.397Z,5.93
2022-10-05T13:13:33.742Z,3.08
2022-10-05T13:18:45.615Z,2.08
2022-10-05T13:23:58.790Z,3.30
2022-10-05T13:29:09.790Z,2.80
2022-10-05T13:34:22.847Z,1.73
2022-10-05T13:39:35.819Z,2.00
2022-10-05T13:44:45.299Z,2.20
2022-10-05T13:49:53.857Z,2.00
2022-10-05T13:55:01.971Z,2.05
2022-10-05T14:00:13.825Z,2.85
2022-10-05T14:05:20.156Z,3.50
2022-10-05T14:10:35.195Z,2.38
2022-10-05T14:15:42.220Z,2.60
2022-10-05T14:20:59.684Z,3.10
2022-10-05T14:26:10.429Z,2.63
2022-10-05T14:31:15.893Z,2.55
2022-10-05T14:41:46.163Z,2.40
2022-10-05T14:46:54.528Z,3.00
2022-10-05T14:51:58.876Z,3.58
2022-10-05T14:57:10.154Z,3.08
2022-10-05T15:02:35.364Z,2.53
2022-10-05T15:07:43.946Z,3.42
2022-10-05T15:12:49.618Z,4.03
2022-10-05T15:17:58.096Z,3.15
2022-10-05T15:23:11.044Z,2.53
2022-10-05T15:28:21.716Z,2.70
2022-10-05T15:33:30.269Z,3.22
2022-10-05T15:38:38.759Z,2.20
2022-10-05T15:43:50.932Z,3.80
2022-10-05T15:49:01.911Z,6.40
2022-10-05T15:54:25.833Z,3.33
2022-10-05T15:59:35.683Z,3.85
2022-10-05T16:04:43.859Z,3.55
2022-10-05T16:09:52.095Z,4.35
2022-10-05T16:15:07.512Z,4.22
2022-10-05T16:20:26.662Z,9.70
2022-10-05T16:25:40.094Z,5.72
2022-10-05T16:30:55.243Z,7.97
2022-10-05T16:36:04.863Z,5.63
2022-10-05T16:41:14.821Z,3.97
2022-10-05T16:46:28.149Z,4.90
2022-10-05T16:51:38.411Z,6.00
2022-10-05T16:56:44.943Z,4.93
2022-10-05T17:01:58.004Z,6.30
2022-10-05T17:07:18.085Z,7.13
2022-10-05T17:12:31.562Z,7.22
2022-10-05T17:17:49.102Z,7.97
2022-10-05T17:22:55.074Z,6.20
2022-10-05T17:28:17.494Z,6.50
2022-10-05T17:33:25.961Z,6.38
2022-10-05T17:38:47.295Z,18.25
2022-10-05T17:44:26.393Z,14.85
2022-10-05T17:50:16.374Z,8.88
2022-10-05T17:55:38.402Z,6.10
2022-10-05T18:00:57.193Z,7.55
2022-10-05T18:06:37.663Z,5.82
2022-10-05T18:11:44.997Z,7.18
2022-10-05T18:16:58.594Z,7.20
2022-10-05T18:22:05.926Z,8.32
2022-10-05T18:27:30.773Z,8.70
2022-10-05T18:32:48.391Z,9.43
2022-10-05T18:38:00.759Z,6.00
2022-10-05T18:43:18.289Z,9.02
2022-10-05T18:48:28.223Z,6.40
2022-10-05T18:53:40.606Z,7.13
2022-10-05T18:58:56.567Z,7.43
2022-10-05T19:09:15.603Z,7.15
2022-10-05T19:14:27.215Z,7.13
2022-10-05T19:19:42.706Z,7.10
2022-10-05T19:24:54.631Z,6.80
2022-10-05T19:30:15.584Z,6.20
2022-10-05T19:35:24.679Z,6.18
2022-10-05T19:40:32.011Z,6.93
2022-10-05T19:45:40.378Z,6.50
2022-10-05T19:50:54.767Z,6.75
2022-10-05T19:56:13.875Z,6.80
2022-10-05T20:01:31.423Z,7.35
2022-10-05T20:06:35.647Z,7.75
2022-10-05T20:11:50.286Z,7.60
2022-10-05T20:17:32.880Z,8.80
2022-10-05T20:22:38.107Z,8.68
2022-10-05T20:27:47.451Z,7.72
2022-10-05T20:32:53.600Z,6.80
2022-10-05T20:43:03.163Z,8.27
2022-10-05T20:48:08.638Z,7.55
2022-10-05T20:53:12.608Z,6.33
2022-10-05T20:58:18.525Z,6.57
2022-10-05T21:03:23.690Z,6.20
2022-10-05T21:08:27.796Z,6.80
2022-10-05T21:13:31.756Z,6.65
2022-10-05T21:18:37.508Z,7.82
2022-10-05T21:23:41.281Z,8.15
2022-10-05T21:28:45.158Z,7.53
2022-10-05T21:33:50.389Z,5.38
2022-10-05T21:38:55.208Z,6.05
2022-10-05T21:43:58.987Z,5.90
2022-10-05T21:49:04.298Z,6.10
2022-10-05T21:54:11.957Z,5.80
2022-10-05T21:59:18.834Z,5.22
2022-10-05T22:04:24.017Z,5.50
2022-10-05T22:09:27.793Z,8.00
2022-10-05T22:14:32.252Z,5.13
2022-10-05T22:19:37.449Z,4.60
2022-10-05T22:24:41.237Z,5.40
2022-10-05T22:29:45.008Z,4.35
2022-10-05T22:34:50.212Z,5.43
2022-10-05T22:39:55.293Z,4.88
2022-10-05T22:44:59.194Z,5.05
2022-10-05T22:50:04.489Z,5.68
2022-10-05T22:55:09.033Z,4.82
2022-10-05T23:00:13.903Z,5.20
2022-10-05T23:05:19.275Z,5.57
2022-10-05T23:10:23.566Z,5.50
2022-10-05T23:15:27.404Z,5.78
2022-10-05T23:20:32.583Z,6.10
2022-10-05T23:25:36.782Z,6.38
2022-10-05T23:30:40.570Z,6.47
2022-10-05T23:35:45.750Z,6.07
2022-10-05T23:40:49.502Z,6.47
2022-10-05T23:45:53.406Z,6.10
2022-10-05T23:50:59.447Z,6.15
2022-10-05T23:56:03.458Z,6.43
